Time;durP1;ratioP1;P1;durP2;ratioP2;P2;SDS_P1;SDS_P2;PMS_P1;PMS_P2;Temp;Humidity;BMP_temperature;BMP_pressure;BME280_temperature;BME280_humidity;BME280_pressure;Samples;Min_cycle;Max_cycle;Signal;HPM_P1;HPM_P2
2022/12/02 00:01:38;;;;;;;81.35;50.63;;;;;;;2.64;100.00;161259.31;5049927;28;20040;-63
2022/12/02 00:04:18;;;;;;;91.13;51.70;;;;;;;2.66;100.00;161266.00;5050734;28;20033;-64
2022/12/02 00:06:43;;;;;;;82.05;46.58;;;;;;;2.62;100.00;161253.91;5049423;28;20033;-63
2022/12/02 00:09:21;;;;;;;90.88;49.17;;;;;;;2.53;100.00;161232.44;5050970;28;20431;-63
2022/12/02 00:11:47;;;;;;;85.10;48.67;;;;;;;2.50;100.00;161224.34;5049540;28;20178;-63
2022/12/02 00:14:25;;;;;;;75.55;42.63;;;;;;;2.52;100.00;161228.41;5050703;28;20051;-63
2022/12/02 00:16:50;;;;;;;79.55;46.15;;;;;;;2.50;100.00;161224.34;5049415;28;20037;-63
2022/12/02 00:19:15;;;;;;;85.03;42.80;;;;;;;2.50;100.00;161224.34;5050769;28;20406;-63
2022/12/02 00:21:41;;;;;;;72.97;41.05;;;;;;;2.41;100.00;161200.22;5048814;28;20413;-65
2022/12/02 00:24:06;;;;;;;65.53;39.17;;;;;;;2.41;100.00;161200.22;5050911;28;20032;-64
2022/12/02 00:26:32;;;;;;;63.65;37.80;;;;;;;2.44;100.00;161206.94;5049635;28;20497;-64
2022/12/02 00:28:57;;;;;;;69.90;38.15;;;;;;;2.42;100.00;161202.88;5050135;28;20383;-64
2022/12/02 00:31:22;;;;;;;75.65;41.97;;;;;;;2.35;100.00;161184.06;5048985;28;20086;-64
2022/12/02 00:33:48;;;;;;;70.55;39.15;;;;;;;2.33;100.00;161178.75;5050773;28;20032;-64
2022/12/02 00:36:13;;;;;;;75.22;41.75;;;;;;;2.34;100.00;161181.44;5049250;28;20033;-64
2022/12/02 00:38:38;;;;;;;67.43;40.25;;;;;;;2.30;100.00;161170.66;5050995;28;20021;-64
2022/12/02 00:41:04;;;;;;;70.13;38.88;;;;;;;2.36;100.00;161186.75;5049148;28;20049;-63
2022/12/02 00:46:31;;;;;;;74.28;43.20;;;;;;;2.37;100.00;161189.47;5049589;28;20411;-63
2022/12/02 00:48:57;;;;;;;68.55;39.53;;;;;;;2.37;100.00;161190.84;5050379;28;20060;-63
2022/12/02 00:51:23;;;;;;;58.88;34.30;;;;;;;2.36;100.00;161186.75;5043020;28;20045;-63
2022/12/02 00:53:48;;;;;;;82.45;40.10;;;;;;;2.36;100.00;161186.75;5050256;28;20059;-63
2022/12/02 00:56:13;;;;;;;70.45;39.70;;;;;;;2.35;100.00;161184.06;5049629;28;20047;-63
2022/12/02 00:58:39;;;;;;;73.45;37.35;;;;;;;2.36;100.00;161186.75;5047873;28;20460;-64
2022/12/02 01:01:04;;;;;;;54.60;32.03;;;;;;;2.37;100.00;161189.47;5029015;28;20068;-63
2022/12/02 01:03:29;;;;;;;53.95;32.15;;;;;;;2.37;100.00;161189.47;5030739;28;20492;-63
2022/12/02 01:05:55;;;;;;;65.68;36.85;;;;;;;2.35;100.00;161184.06;5028650;28;20075;-63
2022/12/02 01:08:24;;;;;;;65.43;36.97;;;;;;;2.38;100.00;161192.16;5030857;28;20029;-63
2022/12/02 01:10:49;;;;;;;;;;;;;;;2.38;100.00;161192.16;5029816;28;20031;-63
2022/12/02 01:13:15;;;;;;;60.88;33.90;;;;;;;2.31;100.00;161173.34;5030217;28;19909;-63
2022/12/02 01:15:40;;;;;;;62.15;32.55;;;;;;;2.36;100.00;161186.75;5031098;28;20030;-64
2022/12/02 01:18:05;;;;;;;63.10;33.60;;;;;;;2.36;100.00;161186.75;5028833;28;20041;-64
2022/12/02 01:20:31;;;;;;;59.67;36.05;;;;;;;2.37;100.00;161189.47;5030302;28;20388;-65
2022/12/02 01:22:56;;;;;;;60.50;33.63;;;;;;;2.37;100.00;161189.47;5039985;28;20125;-65
2022/12/02 01:25:21;;;;;;;61.80;37.90;;;;;;;2.38;100.00;161192.16;5050483;28;20032;-64
2022/12/02 01:27:47;;;;;;;62.25;31.80;;;;;;;2.38;100.00;161192.16;5048440;28;20044;-64
2022/12/02 01:30:13;;;;;;;63.53;36.22;;;;;;;2.36;100.00;161186.75;5050489;28;20472;-64
2022/12/02 01:32:38;;;;;;;63.92;37.17;;;;;;;2.35;100.00;161184.06;5048571;28;20045;-64
2022/12/02 01:35:04;;;;;;;67.85;38.05;;;;;;;2.42;100.00;161202.88;5049946;28;20036;-64
2022/12/02 01:37:29;;;;;;;65.82;37.88;;;;;;;2.44;100.00;161208.25;5048873;28;20045;-63
2022/12/02 01:39:54;;;;;;;60.30;32.30;;;;;;;2.39;100.00;161194.84;5050086;28;20519;-64
2022/12/02 01:42:20;;;;;;;65.25;32.40;;;;;;;2.37;100.00;161189.47;5042287;28;20041;-64
2022/12/02 01:44:45;;;;;;;71.72;37.03;;;;;;;2.37;100.00;161190.84;5030247;28;20122;-64
2022/12/02 01:47:10;;;;;;;61.25;33.53;;;;;;;2.34;100.00;161182.75;5028654;28;20049;-63
2022/12/02 01:49:36;;;;;;;62.95;31.38;;;;;;;2.38;100.00;161192.16;5030185;28;20021;-63
2022/12/02 01:52:01;;;;;;;61.58;36.78;;;;;;;2.40;100.00;161197.53;5030921;28;20455;-63
2022/12/02 01:54:28;;;;;;;59.42;35.72;;;;;;;2.44;100.00;161206.94;5050181;28;20602;-63
2022/12/02 01:56:53;;;;;;;66.03;37.53;;;;;;;2.41;100.00;161198.84;5048136;28;20044;-63
2022/12/02 01:59:21;;;;;;;55.63;34.70;;;;;;;2.40;100.00;161197.53;5047789;28;20087;-63
2022/12/02 02:01:47;;;;;;;64.00;36.13;;;;;;;2.41;100.00;161200.22;5030219;28;20095;-63
2022/12/02 02:04:12;;;;;;;63.95;35.55;;;;;;;2.42;100.00;161201.53;5052419;28;20037;-63
2022/12/02 02:06:41;;;;;;;73.30;34.95;;;;;;;2.46;100.00;161212.25;5052559;28;20094;-63
2022/12/02 02:09:07;;;;;;;60.78;32.40;;;;;;;2.47;100.00;161214.97;5051781;28;20037;-64
2022/12/02 02:11:34;;;;;;;63.13;37.03;;;;;;;2.44;100.00;161206.94;5052037;28;20037;-64
2022/12/02 02:14:00;;;;;;;60.58;32.40;;;;;;;2.43;100.00;161205.56;5035968;28;20056;-65
2022/12/02 02:16:25;;;;;;;57.20;34.05;;;;;;;2.47;100.00;161216.31;5032278;28;20068;-64
2022/12/02 02:18:50;;;;;;;65.53;33.90;;;;;;;2.45;100.00;161209.63;5033073;28;20025;-64
2022/12/02 02:21:23;;;;;;;67.82;35.75;;;;;;;2.43;100.00;161205.56;5032157;28;20045;-64
2022/12/02 02:23:48;;;;;;;57.75;35.20;;;;;;;2.42;100.00;161202.88;5033203;28;20037;-62
2022/12/02 02:26:14;;;;;;;50.70;34.53;;;;;;;2.45;100.00;161209.63;5031821;28;20412;-63
2022/12/02 02:28:40;;;;;;;66.15;36.75;;;;;;;2.45;100.00;161209.63;5033499;28;20021;-62
2022/12/02 02:31:05;;;;;;;64.65;33.05;;;;;;;2.50;100.00;161224.34;5031761;28;20045;-61
2022/12/02 02:33:33;;;;;;;64.13;37.58;;;;;;;2.50;100.00;161223.03;5045396;28;20111;-62
2022/12/02 02:35:59;;;;;;;55.75;34.92;;;;;;;2.52;100.00;161229.75;5051241;28;20032;-62
2022/12/02 02:38:27;;;;;;;63.90;36.22;;;;;;;2.47;100.00;161216.31;5053119;28;20048;-62
2022/12/02 02:40:54;;;;;;;59.20;36.08;;;;;;;2.48;100.00;161217.66;5051570;28;20383;-61
2022/12/02 02:43:22;;;;;;;65.38;37.88;;;;;;;2.47;100.00;161216.31;5052597;28;20033;-64
2022/12/02 02:45:48;;;;;;;49.53;31.48;;;;;;;2.43;100.00;161205.56;5051528;28;20035;-64
2022/12/02 02:48:16;;;;;;;53.42;30.58;;;;;;;2.44;100.00;161208.25;5052880;28;20025;-64
2022/12/02 02:50:43;;;;;;;53.72;32.13;;;;;;;2.46;100.00;161212.25;5053142;28;20108;-65
2022/12/02 02:53:11;;;;;;;58.72;32.45;;;;;;;2.43;100.00;161205.56;5036181;28;20583;-65
2022/12/02 02:55:36;;;;;;;53.65;31.38;;;;;;;2.43;100.00;161204.25;5033072;28;20025;-66
2022/12/02 02:58:10;;;;;;;54.60;30.85;;;;;;;2.38;100.00;161193.47;5030932;28;20080;-63
2022/12/02 03:00:36;;;;;;;50.65;32.42;;;;;;;2.45;100.00;161209.63;5032964;28;20017;-64
2022/12/02 03:03:03;;;;;;;50.15;29.98;;;;;;;2.45;100.00;161209.63;5038171;28;20484;-64
2022/12/02 03:05:28;;;;;;;65.47;35.33;;;;;;;2.43;100.00;161205.56;5052491;28;20116;-63
2022/12/02 03:07:53;;;;;;;54.78;32.17;;;;;;;2.38;100.00;161193.47;5050843;28;20033;-63
2022/12/02 03:10:19;;;;;;;50.97;32.30;;;;;;;2.38;100.00;161192.16;5052718;28;20029;-63
2022/12/02 03:12:45;;;;;;;59.65;31.00;;;;;;;2.39;100.00;161194.84;5049691;28;20064;-63
2022/12/02 03:15:12;;;;;;;51.20;26.90;;;;;;;2.35;100.00;161184.06;5052406;28;20035;-62
2022/12/02 03:17:37;;;;;;;63.90;31.65;;;;;;;2.45;100.00;161210.94;5050983;28;20087;-62
2022/12/02 03:20:04;;;;;;;63.00;35.88;;;;;;;2.36;100.00;161186.75;5051447;28;20021;-62
2022/12/02 03:22:30;;;;;;;59.22;31.98;;;;;;;2.28;100.00;161165.28;5050537;28;20052;-62
2022/12/02 03:24:55;;;;;;;52.95;31.98;;;;;;;2.39;100.00;161194.84;5052125;28;20155;-62
2022/12/02 03:27:21;;;;;;;50.47;34.00;;;;;;;2.41;100.00;161198.84;5050502;28;20048;-61
2022/12/02 03:29:47;;;;;;;62.17;32.38;;;;;;;2.36;100.00;161186.75;5052445;28;20036;-62
2022/12/02 03:32:12;;;;;;;51.10;29.38;;;;;;;2.35;100.00;161184.06;5050173;28;20049;-62
2022/12/02 03:34:40;;;;;;;51.40;30.63;;;;;;;2.36;100.00;161186.75;5051784;28;20040;-62
2022/12/02 03:37:08;;;;;;;49.33;29.90;;;;;;;2.37;100.00;161189.47;5050404;28;20044;-63
2022/12/02 03:39:33;;;;;;;51.92;32.47;;;;;;;2.42;100.00;161201.53;5052296;28;20379;-62
2022/12/02 03:41:58;;;;;;;47.28;30.80;;;;;;;2.40;100.00;161197.53;5049834;28;20033;-62
2022/12/02 03:44:24;;;;;;;55.42;29.92;;;;;;;2.41;100.00;161200.22;5051542;28;20096;-62
2022/12/02 03:46:49;;;;;;;55.10;30.05;;;;;;;2.40;100.00;161197.53;5050461;28;20037;-62
2022/12/02 03:49:17;;;;;;;53.70;32.55;;;;;;;2.34;100.00;161181.44;5051217;28;20029;-63
2022/12/02 03:51:43;;;;;;;66.95;32.03;;;;;;;2.34;100.00;161181.44;5050300;28;20064;-62
2022/12/02 03:54:08;;;;;;;50.15;30.15;;;;;;;2.29;100.00;161169.34;5051225;28;20480;-62
2022/12/02 03:56:38;;;;;;;52.35;33.13;;;;;;;2.25;100.00;161157.25;5050002;28;20044;-62
2022/12/02 03:59:03;;;;;;;50.67;30.88;;;;;;;2.25;100.00;161157.25;5051467;28;20028;-63
2022/12/02 04:01:29;;;;;;;63.72;33.03;;;;;;;2.20;100.00;161146.50;5050081;28;20090;-63
2022/12/02 04:03:54;;;;;;;61.15;35.00;;;;;;;2.28;100.00;161165.28;5037988;28;20083;-63
2022/12/02 04:06:19;;;;;;;49.78;29.70;;;;;;;2.30;100.00;161170.66;5030441;28;20042;-63
2022/12/02 04:08:45;;;;;;;54.40;32.35;;;;;;;2.27;100.00;161162.66;5031748;28;20376;-63
2022/12/02 04:11:10;;;;;;;60.58;35.08;;;;;;;2.28;100.00;161165.28;5029710;28;20048;-63
2022/12/02 04:13:35;;;;;;;54.85;31.00;;;;;;;2.28;100.00;161165.28;5031625;28;20535;-63
2022/12/02 04:16:01;;;;;;;51.35;33.78;;;;;;;2.10;100.00;161119.69;5029854;28;20029;-63
2022/12/02 04:18:26;;;;;;;54.25;34.30;;;;;;;2.25;100.00;161157.25;5031019;28;20567;-63
2022/12/02 04:20:52;;;;;;;57.28;31.08;;;;;;;2.30;100.00;161170.66;5029747;28;20443;-62
2022/12/02 04:23:18;;;;;;;56.15;31.15;;;;;;;2.30;100.00;161170.66;5031573;28;20026;-62
2022/12/02 04:25:43;;;;;;;55.13;34.17;;;;;;;2.25;100.00;161157.25;5030437;28;20364;-63
2022/12/02 04:28:08;;;;;;;52.40;30.45;;;;;;;2.17;100.00;161138.47;5029597;28;20029;-63
2022/12/02 04:30:34;;;;;;;46.95;26.67;;;;;;;2.17;100.00;161137.09;5031645;28;20025;-62
2022/12/02 04:32:59;;;;;;;60.85;33.33;;;;;;;2.16;100.00;161135.78;5032519;28;20036;-62
2022/12/02 04:35:24;;;;;;;57.42;28.85;;;;;;;2.17;100.00;161138.47;5050687;28;20037;-62
2022/12/02 04:37:50;;;;;;;59.38;29.73;;;;;;;2.16;100.00;161135.78;5049258;28;20044;-63
2022/12/02 04:40:17;;;;;;;64.10;35.70;;;;;;;2.15;100.00;161133.09;5032418;28;20061;-62
2022/12/02 04:42:42;;;;;;;57.92;31.73;;;;;;;2.19;100.00;161143.84;5049223;28;20043;-63
2022/12/02 04:45:08;;;;;;;61.05;33.00;;;;;;;2.18;100.00;161141.16;5050549;28;20554;-62
2022/12/02 04:47:33;;;;;;;59.15;31.92;;;;;;;2.16;100.00;161134.47;5049130;28;20135;-62
2022/12/02 04:49:58;;;;;;;61.80;33.53;;;;;;;2.14;100.00;161129.06;5050630;28;20040;-62
2022/12/02 04:52:24;;;;;;;50.28;28.25;;;;;;;2.14;100.00;161130.41;5049128;28;20037;-61
2022/12/02 04:54:49;;;;;;;63.88;32.72;;;;;;;2.11;100.00;161122.38;5050176;28;20028;-61
2022/12/02 04:57:14;;;;;;;44.03;28.13;;;;;;;2.08;100.00;161114.31;5049348;28;20395;-61
2022/12/02 04:59:40;;;;;;;56.63;29.48;;;;;;;2.09;100.00;161117.00;5050509;28;20025;-61
2022/12/02 05:02:06;;;;;;;45.47;28.10;;;;;;;2.03;100.00;161100.91;5049003;28;20041;-61
2022/12/02 05:04:31;;;;;;;60.97;29.75;;;;;;;2.00;100.00;161094.19;5042224;28;20040;-61
2022/12/02 05:06:56;;;;;;;57.20;29.65;;;;;;;2.02;100.00;161098.19;5049039;28;20083;-61
2022/12/02 05:09:22;;;;;;;50.50;30.42;;;;;;;2.03;100.00;161100.91;5049960;28;20391;-61
2022/12/02 05:11:47;;;;;;;51.90;26.73;;;;;;;2.02;100.00;161099.53;5049034;28;20021;-63
2022/12/02 05:14:12;;;;;;;53.03;28.95;;;;;;;2.01;100.00;161095.50;5040876;28;20045;-62
2022/12/02 05:16:38;;;;;;;53.75;28.42;;;;;;;1.98;100.00;161087.44;5032351;28;20029;-61
2022/12/02 05:19:03;;;;;;;52.38;29.40;;;;;;;1.97;100.00;161084.81;5030366;28;20037;-62
2022/12/02 05:21:28;;;;;;;61.60;30.25;;;;;;;2.03;100.00;161100.91;5030931;28;20025;-62
2022/12/02 05:23:54;;;;;;;50.47;30.75;;;;;;;2.03;100.00;161100.91;5047885;28;20033;-62
2022/12/02 05:26:19;;;;;;;50.75;26.52;;;;;;;2.04;100.00;161103.59;5031322;28;20033;-62
2022/12/02 05:28:44;;;;;;;56.25;27.65;;;;;;;2.06;100.00;161108.91;5029010;28;20033;-62
2022/12/02 05:31:10;;;;;;;50.08;26.50;;;;;;;2.02;100.00;161098.19;5032701;28;20041;-61
2022/12/02 05:33:35;;;;;;;51.78;27.77;;;;;;;2.04;100.00;161103.59;5030556;28;20435;-62
2022/12/02 05:36:00;;;;;;;52.90;31.92;;;;;;;2.00;100.00;161092.81;5029417;28;20025;-62
2022/12/02 05:38:26;;;;;;;56.20;29.05;;;;;;;2.06;100.00;161108.91;5044695;28;20029;-65
2022/12/02 05:40:55;;;;;;;51.20;29.95;;;;;;;2.02;100.00;161098.19;5052284;28;20036;-64
2022/12/02 05:43:22;;;;;;;56.85;29.83;;;;;;;1.99;100.00;161090.13;5054154;28;20036;-62
2022/12/02 05:45:48;;;;;;;56.60;29.85;;;;;;;1.98;100.00;161087.44;5052340;28;20040;-63
2022/12/02 05:48:16;;;;;;;67.10;32.17;;;;;;;2.00;100.00;161092.81;5054045;28;20025;-64
2022/12/02 05:50:43;;;;;;;65.38;33.45;;;;;;;1.94;100.00;161078.03;5054091;28;20495;-64
2022/12/02 05:53:22;;;;;;;65.68;32.38;;;;;;;1.90;100.00;161067.34;5052307;28;20126;-64
2022/12/02 05:55:48;;;;;;;64.40;32.90;;;;;;;1.89;100.00;161066.00;5052396;28;20021;-63
2022/12/02 05:58:15;;;;;;;66.65;33.75;;;;;;;1.92;100.00;161071.34;5053866;28;20029;-63
2022/12/02 06:00:41;;;;;;;76.18;37.75;;;;;;;1.92;100.00;161071.34;5053841;28;20107;-63
2022/12/02 06:03:15;;;;;;;74.75;36.40;;;;;;;1.91;100.00;161070.03;5051870;28;20083;-64
2022/12/02 06:05:41;;;;;;;70.35;35.30;;;;;;;1.86;100.00;161057.94;5054034;28;20074;-64
2022/12/02 06:08:31;;;;;;;69.15;40.05;;;;;;;1.83;100.00;161049.88;5051893;28;20495;-64
2022/12/02 06:11:00;;;;;;;76.35;37.08;;;;;;;1.74;100.00;161025.75;5052100;28;20024;-64
2022/12/02 06:13:28;;;;;;;87.88;38.10;;;;;;;1.78;100.00;161035.16;5054045;28;20028;-64
2022/12/02 06:15:54;;;;;;;80.90;35.72;;;;;;;1.79;100.00;161039.16;5051674;28;20021;-63
2022/12/02 06:18:28;;;;;;;75.97;38.55;;;;;;;1.77;100.00;161032.44;5053346;28;20526;-64
2022/12/02 06:21:01;;;;;;;71.53;37.60;;;;;;;1.82;100.00;161047.22;5051506;28;20060;-63
2022/12/02 06:23:30;;;;;;;80.70;37.30;;;;;;;1.80;100.00;161041.84;5053349;28;20071;-64
2022/12/02 06:25:56;;;;;;;68.35;37.63;;;;;;;1.81;100.00;161043.16;5051833;28;20048;-61
2022/12/02 06:28:27;;;;;;;84.80;40.28;;;;;;;1.79;100.00;161039.16;5053570;28;20786;-61
2022/12/02 06:31:08;;;;;;;76.22;36.78;;;;;;;1.76;100.00;161031.09;5040233;28;20495;-61
2022/12/02 06:33:36;;;;;;;100.85;46.95;;;;;;;1.75;100.00;161028.38;5033833;28;20017;-61
2022/12/02 06:36:08;;;;;;;92.78;43.40;;;;;;;1.77;100.00;161032.44;5031670;28;20021;-61
2022/12/02 06:38:37;;;;;;;91.28;40.55;;;;;;;1.78;100.00;161036.47;5032983;28;20494;-60
2022/12/02 06:41:22;;;;;;;92.97;38.20;;;;;;;1.75;100.00;161028.38;5031616;28;20116;-60
2022/12/02 06:46:33;;;;;;;96.80;40.30;;;;;;;1.81;100.00;161044.53;5031621;28;20064;-60
2022/12/02 06:49:19;;;;;;;93.47;41.80;;;;;;;1.81;100.00;161043.16;5032264;28;20133;-60
2022/12/02 06:51:45;;;;;;;88.78;40.80;;;;;;;1.77;100.00;161032.44;5031848;28;20471;-60
2022/12/02 06:54:19;;;;;;;94.20;38.95;;;;;;;1.83;100.00;161048.53;5032570;28;20100;-60
2022/12/02 06:56:45;;;;;;;96.93;40.10;;;;;;;1.85;100.00;161055.25;5031831;28;20412;-60
2022/12/02 06:59:13;;;;;;;93.45;41.10;;;;;;;1.80;100.00;161041.84;5032632;28;20117;-60
2022/12/02 07:01:41;;;;;;;106.07;42.45;;;;;;;1.90;100.00;161068.66;5031005;28;20049;-60
2022/12/02 07:04:31;;;;;;;87.57;41.05;;;;;;;1.83;100.00;161049.88;5032948;28;20033;-60
2022/12/02 07:07:18;;;;;;;91.30;38.70;;;;;;;1.83;100.00;161049.88;5031168;28;20124;-62
2022/12/02 07:09:46;;;;;;;89.75;38.85;;;;;;;1.87;100.00;161060.63;5032603;28;20043;-61
2022/12/02 07:12:19;;;;;;;116.13;45.70;;;;;;;1.81;100.00;161044.53;5031532;28;20037;-60
2022/12/02 07:14:48;;;;;;;85.15;37.47;;;;;;;1.88;100.00;161063.31;5032436;28;20030;-60
2022/12/02 07:17:22;;;;;;;84.93;41.65;;;;;;;1.83;100.00;161049.88;5031337;28;20091;-62
2022/12/02 07:19:56;;;;;;;86.63;37.58;;;;;;;1.81;100.00;161044.53;5032305;28;20167;-62
2022/12/02 07:22:28;;;;;;;100.40;44.10;;;;;;;1.83;100.00;161048.53;5030845;28;20515;-62
2022/12/02 07:25:04;;;;;;;108.82;45.42;;;;;;;1.85;100.00;161055.25;5032372;28;20061;-62
2022/12/02 07:27:32;;;;;;;111.40;43.65;;;;;;;1.84;100.00;161052.56;5031058;28;20041;-62
2022/12/02 07:29:59;;;;;;;106.15;42.17;;;;;;;1.87;100.00;161059.25;5031751;28;20392;-62
2022/12/02 07:32:25;;;;;;;97.40;43.55;;;;;;;1.84;100.00;161052.56;5031081;28;20033;-62
2022/12/02 07:34:50;;;;;;;90.65;41.88;;;;;;;1.87;100.00;161060.63;5031152;28;20021;-62
2022/12/02 07:37:15;;;;;;;99.20;41.17;;;;;;;1.81;100.00;161044.53;5030392;28;20080;-62
2022/12/02 07:39:41;;;;;;;105.38;39.65;;;;;;;1.79;100.00;161039.16;5032228;28;20025;-62
2022/12/02 07:42:06;;;;;;;95.15;39.97;;;;;;;1.82;100.00;161045.84;5030282;28;20496;-62
2022/12/02 07:44:32;;;;;;;101.38;43.83;;;;;;;1.82;100.00;161047.22;5031458;28;20041;-62
2022/12/02 07:46:57;;;;;;;99.13;46.65;;;;;;;1.82;100.00;161047.22;5029074;28;20048;-61
2022/12/02 07:49:23;;;;;;;100.07;46.05;;;;;;;1.84;100.00;161052.56;5040860;28;20439;-60
2022/12/02 07:51:48;;;;;;;109.97;45.00;;;;;;;1.85;100.00;161053.94;5036760;28;20041;-60
2022/12/02 07:54:14;;;;;;;95.90;41.90;;;;;;;1.87;100.00;161060.63;5031582;28;20451;-60
2022/12/02 07:56:39;;;;;;;91.90;40.83;;;;;;;1.89;100.00;161066.00;5029984;28;20041;-60
2022/12/02 07:59:04;;;;;;;88.55;39.03;;;;;;;1.80;100.00;161041.84;5036275;28;20045;-60
2022/12/02 08:01:30;;;;;;;104.93;42.40;;;;;;;1.86;100.00;161057.94;5032606;28;20503;-60
2022/12/02 08:03:55;;;;;;;80.90;36.20;;;;;;;1.83;100.00;161049.88;5031150;28;20025;-60
2022/12/02 08:06:20;;;;;;;93.57;41.35;;;;;;;1.84;100.00;161052.56;5029422;28;20033;-60
2022/12/02 08:08:46;;;;;;;93.53;38.95;;;;;;;1.82;100.00;161047.22;5031515;28;20143;-61
2022/12/02 08:11:11;;;;;;;99.07;43.05;;;;;;;1.72;100.00;161020.38;5029539;28;20036;-60
2022/12/02 08:13:36;;;;;;;85.80;40.38;;;;;;;1.77;100.00;161032.44;5030721;28;20088;-60
2022/12/02 08:16:02;;;;;;;86.53;41.15;;;;;;;1.77;100.00;161033.78;5029627;28;20025;-60
2022/12/02 08:18:27;;;;;;;95.47;37.58;;;;;;;1.78;100.00;161035.16;5031274;28;20388;-60
2022/12/02 08:20:52;;;;;;;88.13;41.60;;;;;;;1.77;100.00;161033.78;5029685;28;20022;-60
2022/12/02 08:23:18;;;;;;;95.90;41.53;;;;;;;1.80;100.00;161041.84;5031220;28;20209;-60
2022/12/02 08:25:43;;;;;;;101.65;46.28;;;;;;;1.85;100.00;161055.25;5031630;28;20024;-60
2022/12/02 08:28:08;;;;;;;92.82;40.05;;;;;;;1.80;100.00;161041.84;5029699;28;20091;-60
2022/12/02 08:30:34;;;;;;;89.45;39.13;;;;;;;1.88;100.00;161063.31;5030888;28;20025;-60
2022/12/02 08:32:59;;;;;;;91.25;42.65;;;;;;;1.93;100.00;161075.41;5029532;28;20091;-60
2022/12/02 08:35:24;;;;;;;105.07;43.33;;;;;;;1.87;100.00;161060.63;5031261;28;20075;-60
2022/12/02 08:37:50;;;;;;;95.93;41.35;;;;;;;1.93;100.00;161074.03;5029140;28;20492;-61
2022/12/02 08:40:15;;;;;;;98.95;40.15;;;;;;;1.88;100.00;161063.31;5031122;28;20017;-60
2022/12/02 08:42:41;;;;;;;88.43;38.53;;;;;;;1.89;100.00;161066.00;5029484;28;20038;-60
2022/12/02 08:45:07;;;;;;;100.38;42.70;;;;;;;1.86;100.00;161057.94;5030495;28;20065;-60
2022/12/02 08:47:32;;;;;;;111.40;45.35;;;;;;;1.70;100.00;161016.34;5029467;28;20045;-60
2022/12/02 08:49:58;;;;;;;94.78;43.42;;;;;;;1.78;100.00;161035.16;5030920;28;20028;-60
2022/12/02 08:52:23;;;;;;;100.45;44.42;;;;;;;1.83;100.00;161049.88;5029460;28;20423;-60
2022/12/02 08:54:48;;;;;;;101.57;40.38;;;;;;;1.70;100.00;161016.34;5030672;28;20029;-60
2022/12/02 08:57:14;;;;;;;105.18;46.63;;;;;;;1.83;100.00;161049.88;5029379;28;20095;-60
2022/12/02 08:59:39;;;;;;;115.88;43.25;;;;;;;1.79;100.00;161039.16;5030838;28;20025;-60
2022/12/02 09:02:05;;;;;;;99.05;42.45;;;;;;;1.73;100.00;161023.06;5028976;28;20034;-60
2022/12/02 09:04:31;;;;;;;76.05;36.47;;;;;;;1.75;100.00;161028.38;5030910;28;20025;-60
2022/12/02 09:06:56;;;;;;;102.20;41.10;;;;;;;1.75;100.00;161028.38;5028962;28;20033;-60
2022/12/02 09:09:21;;;;;;;96.55;37.30;;;;;;;1.82;100.00;161047.22;5030751;28;20022;-60
2022/12/02 09:11:47;;;;;;;100.90;45.30;;;;;;;1.86;100.00;161057.94;5028408;28;20048;-60
2022/12/02 09:14:12;;;;;;;74.63;34.13;;;;;;;1.87;100.00;161060.63;5030499;28;20032;-60
2022/12/02 09:16:37;;;;;;;85.07;38.60;;;;;;;1.87;100.00;161060.63;5029303;28;20558;-60
2022/12/02 09:19:03;;;;;;;87.68;38.28;;;;;;;1.90;100.00;161067.34;5030373;28;20419;-60
2022/12/02 09:21:28;;;;;;;82.30;32.00;;;;;;;1.87;100.00;161060.63;5028745;28;20038;-60
2022/12/02 09:23:53;;;;;;;84.80;36.03;;;;;;;1.97;100.00;161086.13;5030411;28;20056;-60
2022/12/02 09:26:19;;;;;;;76.85;35.17;;;;;;;2.04;100.00;161103.59;5029172;28;20532;-60
2022/12/02 09:28:45;;;;;;;70.45;29.80;;;;;;;2.11;100.00;161122.38;5030575;28;20373;-60
2022/12/02 09:31:10;;;;;;;62.95;32.72;;;;;;;2.16;100.00;161134.47;5028964;28;20078;-60
2022/12/02 09:33:36;;;;;;;61.25;30.50;;;;;;;2.24;100.00;161155.88;5030609;28;20025;-60
2022/12/02 09:36:01;;;;;;;62.55;30.10;;;;;;;2.40;100.00;161196.16;5028596;28;20021;-60
2022/12/02 09:38:30;;;;;;;64.82;30.33;;;;;;;2.49;100.00;161221.72;5030374;28;20048;-60
2022/12/02 09:40:56;;;;;;;57.83;31.75;;;;;;;2.53;100.00;161232.44;5028859;28;20101;-60
2022/12/02 09:43:21;;;;;;;61.60;29.40;;;;;;;2.56;100.00;161237.81;5029851;28;20079;-59
2022/12/02 09:45:46;;;;;;;60.42;31.90;;;;;;;2.56;100.00;161237.81;5028893;28;20552;-60
2022/12/02 09:48:12;;;;;;;64.00;29.50;;;;;;;2.57;100.00;161241.81;5030486;28;20028;-60
2022/12/02 09:50:39;;;;;;;82.22;34.15;;;;;;;2.66;100.00;161264.63;5030176;28;20025;-60
2022/12/02 09:53:06;;;;;;;62.50;29.90;;;;;;;2.51;100.00;161225.72;5028696;28;20096;-60
2022/12/02 09:55:32;;;;;;;55.90;28.38;;;;;;;2.47;100.00;161216.31;5031027;28;20072;-60
2022/12/02 09:58:18;;;;;;;58.20;29.27;;;;;;;2.35;100.00;161184.06;5028276;28;20042;-60
2022/12/02 10:00:45;;;;;;;57.38;29.80;;;;;;;2.34;100.00;161181.44;5030579;28;20027;-61
2022/12/02 10:03:14;;;;;;;56.13;27.02;;;;;;;2.48;100.00;161219.03;5028925;28;20178;-60
2022/12/02 10:05:39;;;;;;;57.17;25.52;;;;;;;2.47;100.00;161214.97;5029952;28;20075;-60
2022/12/02 10:08:11;;;;;;;49.58;25.00;;;;;;;2.48;100.00;161219.03;5028651;28;20034;-60
2022/12/02 10:10:39;;;;;;;55.92;27.33;;;;;;;2.48;100.00;161219.03;5030479;28;20025;-60
2022/12/02 10:13:04;;;;;;;64.15;27.50;;;;;;;2.31;100.00;161174.69;5028148;28;20045;-60
2022/12/02 10:15:31;;;;;;;54.83;29.65;;;;;;;2.22;100.00;161151.88;5030205;28;20034;-60
2022/12/02 10:18:01;;;;;;;58.63;27.67;;;;;;;2.25;100.00;161157.25;5028479;28;20103;-60
2022/12/02 10:20:27;;;;;;;46.60;24.17;;;;;;;2.29;100.00;161167.97;5029998;28;20033;-60
2022/12/02 10:23:18;;;;;;;50.30;25.33;;;;;;;2.31;100.00;161174.69;5028486;28;20041;-60
2022/12/02 10:25:53;;;;;;;45.28;22.48;;;;;;;2.33;100.00;161178.75;5033658;28;20108;-60
2022/12/02 10:28:30;;;;;;;61.60;31.17;;;;;;;2.42;100.00;161201.53;5032124;28;20094;-60
2022/12/02 10:31:03;;;;;;;40.78;23.33;;;;;;;2.45;100.00;161210.94;5031818;28;20472;-60
2022/12/02 10:33:30;;;;;;;38.78;20.60;;;;;;;2.43;100.00;161205.56;5033716;28;20021;-60
2022/12/02 10:35:58;;;;;;;51.28;24.48;;;;;;;2.43;100.00;161204.25;5031551;28;20389;-60
2022/12/02 10:38:29;;;;;;;42.35;23.38;;;;;;;2.36;100.00;161186.75;5033495;28;20025;-60
2022/12/02 10:41:13;;;;;;;51.35;22.85;;;;;;;2.26;100.00;161159.94;5031599;28;20083;-60
2022/12/02 10:43:43;;;;;;;52.47;24.40;;;;;;;2.22;100.00;161151.88;5032951;28;20574;-60
2022/12/02 10:46:15;;;;;;;50.60;23.65;;;;;;;2.30;100.00;161170.66;5031834;28;20041;-60
2022/12/02 10:48:41;;;;;;;48.65;24.55;;;;;;;2.25;100.00;161158.59;5033207;28;20028;-60
2022/12/02 10:51:13;;;;;;;41.90;23.73;;;;;;;2.30;100.00;161170.66;5031014;28;20783;-60
2022/12/02 10:53:38;;;;;;;43.53;20.80;;;;;;;2.30;100.00;161172.03;5033433;28;20021;-60
2022/12/02 10:56:04;;;;;;;48.72;22.10;;;;;;;2.22;100.00;161151.88;5031953;28;20026;-60
2022/12/02 10:58:29;;;;;;;33.38;20.63;;;;;;;2.37;100.00;161189.47;5032778;28;20057;-62
2022/12/02 11:00:56;;;;;;;42.75;24.40;;;;;;;2.41;100.00;161200.22;5030982;28;20043;-62
2022/12/02 11:03:23;;;;;;;40.42;22.20;;;;;;;2.48;100.00;161219.03;5038855;28;20029;-62
2022/12/02 11:05:49;;;;;;;32.70;19.05;;;;;;;2.45;100.00;161210.94;5034411;28;20106;-62
2022/12/02 11:08:21;;;;;;;44.10;20.27;;;;;;;2.47;100.00;161214.97;5032599;28;20488;-62
2022/12/02 11:10:50;;;;;;;38.45;19.90;;;;;;;2.43;100.00;161204.25;5031203;28;20033;-62
2022/12/02 11:13:29;;;;;;;47.38;21.52;;;;;;;2.41;100.00;161198.84;5033239;28;20096;-62
2022/12/02 11:15:54;;;;;;;39.60;21.92;;;;;;;2.40;100.00;161197.53;5038810;28;20589;-62